Terminal Aerodrome Forecast
Issued by NWS Raleigh/Durham, NC

Home | Current Version | Previous Version | Text Only | Print | Product List | Glossary On
Versions: 1 2 3 4 5 6 7 8 9 10 11 12 13 14 15 16 17 18 19
000
FTUS42 KRAH 290441 AAD
TAFRDU
TAF AMD
KRDU 290441Z 2905/2924 07005KT P6SM BKN004
     FM290700 05005KT 4SM BR OVC004
      TEMPO 2909/2913 1SM BR OVC002
     FM291500 32005KT P6SM SCT025=

USA.gov is the U.S. government's official web portal to all federal, state and local government web resources and services.